createdAt,value
2022-09-15T00:00:27.976Z,5.97
2022-09-15T00:02:54.652Z,5.07
2022-09-15T00:05:21.267Z,11.18
2022-09-15T00:07:47.897Z,7.85
2022-09-15T00:10:14.562Z,4.70
2022-09-15T00:12:41.620Z,9.18
2022-09-15T00:15:09.304Z,5.75
2022-09-15T00:17:35.822Z,11.40
2022-09-15T00:20:06.143Z,9.45
2022-09-15T00:22:32.840Z,8.00
2022-09-15T00:24:59.468Z,4.50
2022-09-15T00:27:26.155Z,6.25
2022-09-15T00:29:52.753Z,10.05
2022-09-15T00:32:19.966Z,6.72
2022-09-15T00:34:46.818Z,8.07
2022-09-15T00:37:13.409Z,5.18
2022-09-15T00:39:41.600Z,5.45
2022-09-15T00:42:17.597Z,8.73
2022-09-15T00:45:06.629Z,4.70
2022-09-15T00:47:39.223Z,6.50
2022-09-15T00:50:18.743Z,5.95
2022-09-15T00:53:08.286Z,5.45
2022-09-15T00:55:47.486Z,6.43
2022-09-15T00:58:23.203Z,6.53
2022-09-15T01:00:56.270Z,8.07
2022-09-15T01:03:25.156Z,4.22
2022-09-15T01:05:55.676Z,5.22
2022-09-15T01:08:34.896Z,4.88
2022-09-15T01:11:02.626Z,7.07
2022-09-15T01:13:29.846Z,9.77
2022-09-15T01:16:32.672Z,7.18
2022-09-15T01:19:12.221Z,5.10
2022-09-15T01:21:58.603Z,7.40
2022-09-15T01:24:45.829Z,7.75
2022-09-15T01:27:49.418Z,6.00
2022-09-15T01:30:25.978Z,9.07
2022-09-15T01:33:31.366Z,6.38
2022-09-15T01:36:10.510Z,7.18
2022-09-15T01:38:50.450Z,9.45
2022-09-15T01:41:48.267Z,5.47
2022-09-15T01:44:35.172Z,6.50
2022-09-15T01:47:06.662Z,7.07
2022-09-15T01:50:01.592Z,5.47
2022-09-15T01:52:30.700Z,7.15
2022-09-15T01:55:00.685Z,5.07
2022-09-15T01:57:27.996Z,5.00
2022-09-15T01:59:56.161Z,5.10
2022-09-15T02:02:32.226Z,7.05
2022-09-15T02:05:26.506Z,4.00
2022-09-15T02:08:05.497Z,6.43
2022-09-15T02:11:12.889Z,6.00
2022-09-15T02:14:11.537Z,5.28
2022-09-15T02:16:40.720Z,5.70
2022-09-15T02:19:35.891Z,7.05
2022-09-15T02:22:14.553Z,6.00
2022-09-15T02:24:46.693Z,9.40
2022-09-15T02:27:22.161Z,5.30
2022-09-15T02:29:50.116Z,5.93
2022-09-15T02:32:19.283Z,5.00
2022-09-15T02:34:51.397Z,4.97
2022-09-15T02:37:21.185Z,6.65
2022-09-15T02:39:54.939Z,4.43
2022-09-15T02:42:30.244Z,6.28
2022-09-15T02:44:57.462Z,8.23
2022-09-15T02:47:24.703Z,5.40
2022-09-15T02:49:52.177Z,4.25
2022-09-15T02:52:18.922Z,4.53
2022-09-15T02:54:45.717Z,5.22
2022-09-15T02:57:13.949Z,6.10
2022-09-15T02:59:58.925Z,5.18
2022-09-15T03:02:25.596Z,8.55
2022-09-15T03:04:52.185Z,4.63
2022-09-15T03:07:19.393Z,4.85
2022-09-15T03:09:46.131Z,7.22
2022-09-15T03:12:12.676Z,4.63
2022-09-15T03:14:39.209Z,4.70
2022-09-15T03:17:05.781Z,6.30
2022-09-15T03:19:32.375Z,7.15
2022-09-15T03:21:58.958Z,6.55
2022-09-15T03:24:25.503Z,8.35
2022-09-15T03:26:51.976Z,5.22
2022-09-15T03:29:18.441Z,6.15
2022-09-15T03:31:45.047Z,8.23
2022-09-15T03:34:11.759Z,8.60
2022-09-15T03:36:38.569Z,5.57
2022-09-15T03:39:05.171Z,7.95
2022-09-15T03:41:31.771Z,8.75
2022-09-15T03:43:58.322Z,5.40
2022-09-15T03:46:24.913Z,9.50
2022-09-15T03:48:51.524Z,7.32
2022-09-15T03:51:18.053Z,6.32
2022-09-15T03:53:44.704Z,5.43
2022-09-15T03:56:28.241Z,5.20
2022-09-15T03:58:54.965Z,7.25
2022-09-15T04:01:21.899Z,5.38
2022-09-15T04:03:51.221Z,6.18
2022-09-15T04:06:20.020Z,5.28
2022-09-15T04:08:46.822Z,5.03
2022-09-15T04:11:13.951Z,7.15
2022-09-15T04:13:42.063Z,9.68
2022-09-15T04:16:15.551Z,5.85
2022-09-15T04:18:42.307Z,6.05
2022-09-15T04:21:13.109Z,6.57
2022-09-15T04:23:41.860Z,6.63
2022-09-15T04:26:14.330Z,9.38
2022-09-15T04:28:40.917Z,8.38
2022-09-15T04:31:10.515Z,7.45
2022-09-15T04:33:37.890Z,6.28
2022-09-15T04:36:11.063Z,11.57
2022-09-15T04:38:37.643Z,10.10
2022-09-15T04:41:05.284Z,7.20
2022-09-15T04:43:33.019Z,7.10
2022-09-15T04:45:59.682Z,9.45
2022-09-15T04:48:26.789Z,6.78
2022-09-15T04:50:53.596Z,11.65
2022-09-15T04:53:20.779Z,10.73
2022-09-15T04:55:47.348Z,12.73
2022-09-15T04:58:14.576Z,7.82
2022-09-15T05:00:45.800Z,11.43
2022-09-15T05:03:14.182Z,8.13
2022-09-15T05:05:41.400Z,9.35
2022-09-15T05:08:08.337Z,11.90
2022-09-15T05:10:35.440Z,10.38
2022-09-15T05:13:02.347Z,14.60
2022-09-15T05:15:29.056Z,8.88
2022-09-15T05:17:55.627Z,13.05
2022-09-15T05:20:22.824Z,12.45
2022-09-15T05:22:49.368Z,6.38
2022-09-15T05:25:15.986Z,13.55
2022-09-15T05:27:42.741Z,10.40
2022-09-15T05:30:35.877Z,8.23
2022-09-15T05:32:56.779Z,13.02
2022-09-15T05:35:24.031Z,14.32
2022-09-15T05:37:50.658Z,8.00
2022-09-15T05:40:17.295Z,12.43
2022-09-15T05:42:43.946Z,7.32
2022-09-15T05:45:11.074Z,9.82
2022-09-15T05:47:37.798Z,9.98
2022-09-15T05:50:04.685Z,14.63
2022-09-15T05:52:31.239Z,12.48
2022-09-15T05:54:59.361Z,12.68
2022-09-15T05:57:26.131Z,11.20
2022-09-15T05:59:52.667Z,11.77
2022-09-15T06:02:19.264Z,11.63
2022-09-15T06:04:45.913Z,13.98
2022-09-15T06:07:13.421Z,11.13
2022-09-15T06:09:40.048Z,12.57
2022-09-15T06:12:06.756Z,8.55
2022-09-15T06:14:33.334Z,18.88
2022-09-15T06:17:00.265Z,10.45
2022-09-15T06:19:26.765Z,13.65
2022-09-15T06:21:54.423Z,13.43
2022-09-15T06:24:22.109Z,11.70
2022-09-15T06:26:48.652Z,19.73
2022-09-15T06:29:15.210Z,13.45
2022-09-15T06:31:41.945Z,11.60
2022-09-15T06:34:11.278Z,9.10
2022-09-15T06:36:38.942Z,12.88
2022-09-15T06:39:05.623Z,8.02
2022-09-15T06:41:47.386Z,14.82
2022-09-15T06:44:21.954Z,17.45
2022-09-15T06:46:49.414Z,13.10
2022-09-15T06:49:16.454Z,13.50
2022-09-15T06:51:43.083Z,12.43
2022-09-15T06:54:10.935Z,7.53
2022-09-15T06:56:38.442Z,11.32
2022-09-15T06:59:05.550Z,12.25
2022-09-15T07:01:32.686Z,9.60
2022-09-15T07:04:01.602Z,12.45
2022-09-15T07:06:30.262Z,12.45
2022-09-15T07:08:57.456Z,14.73
2022-09-15T07:11:24.759Z,8.77
2022-09-15T07:13:52.134Z,10.30
2022-09-15T07:16:20.192Z,12.63
2022-09-15T07:18:47.471Z,12.60
2022-09-15T07:21:17.100Z,11.00
2022-09-15T07:23:44.476Z,13.68
2022-09-15T07:26:23.868Z,10.55
2022-09-15T07:29:05.690Z,10.13
2022-09-15T07:31:34.789Z,6.43
2022-09-15T07:34:02.312Z,14.13
2022-09-15T07:36:29.879Z,11.88
2022-09-15T07:38:56.497Z,9.30
2022-09-15T07:41:28.349Z,12.27
2022-09-15T07:43:57.870Z,11.63
2022-09-15T07:46:25.589Z,13.65
2022-09-15T07:48:56.418Z,14.90
2022-09-15T07:51:23.797Z,9.48
2022-09-15T07:53:51.206Z,12.30
2022-09-15T07:56:18.649Z,10.68
2022-09-15T07:58:46.557Z,9.63
2022-09-15T08:01:16.737Z,7.85
2022-09-15T08:03:49.146Z,10.80
2022-09-15T08:06:18.103Z,11.25
2022-09-15T08:08:45.203Z,12.43
2022-09-15T08:11:18.420Z,11.32
2022-09-15T08:13:46.934Z,11.30
2022-09-15T08:16:22.354Z,9.60
2022-09-15T08:18:50.028Z,9.35
2022-09-15T08:21:20.345Z,7.75
2022-09-15T08:23:51.840Z,13.18
2022-09-15T08:26:18.893Z,10.07
2022-09-15T08:28:46.328Z,12.88
2022-09-15T08:31:14.258Z,11.25
2022-09-15T08:33:45.516Z,11.63
2022-09-15T08:36:13.803Z,13.20
2022-09-15T08:38:41.972Z,7.13
2022-09-15T08:41:18.722Z,14.48
2022-09-15T08:43:57.703Z,14.48
2022-09-15T08:46:31.915Z,10.65
2022-09-15T08:49:10.748Z,22.08
2022-09-15T08:51:46.280Z,17.83
2022-09-15T08:54:21.791Z,6.18
2022-09-15T08:56:48.994Z,13.10
2022-09-15T08:59:17.500Z,19.58
2022-09-15T09:02:18.281Z,10.38
2022-09-15T09:05:03.443Z,14.68
2022-09-15T09:08:09.767Z,8.43
2022-09-15T09:10:53.011Z,11.85
2022-09-15T09:13:35.206Z,10.63
2022-09-15T09:19:18.703Z,16.50
2022-09-15T09:21:53.683Z,13.43
2022-09-15T09:24:28.790Z,17.23
2022-09-15T09:26:55.822Z,12.50
2022-09-15T09:29:34.707Z,13.73
2022-09-15T09:32:03.299Z,34.95
2022-09-15T09:35:03.004Z,11.40
2022-09-15T09:37:29.993Z,58.22
2022-09-15T09:39:56.836Z,35.83
2022-09-15T09:42:30.559Z,59.72
2022-09-15T09:44:57.376Z,58.47
2022-09-15T09:47:29.797Z,41.63
2022-09-15T09:49:56.422Z,45.50
2022-09-15T09:52:39.280Z,37.63
2022-09-15T09:55:27.204Z,33.60
2022-09-15T09:58:10.954Z,49.53
2022-09-15T10:00:40.355Z,35.00
2022-09-15T10:03:18.936Z,33.00
2022-09-15T10:06:00.094Z,35.03
2022-09-15T10:08:26.831Z,64.27
2022-09-15T10:10:55.913Z,54.70
2022-09-15T10:13:23.035Z,51.97
2022-09-15T10:15:59.442Z,38.58
2022-09-15T10:18:34.300Z,58.85
2022-09-15T10:21:08.347Z,48.60
2022-09-15T10:23:35.556Z,50.75
2022-09-15T10:26:32.193Z,54.47
2022-09-15T10:29:17.136Z,71.15
2022-09-15T10:31:45.150Z,54.35
2022-09-15T10:34:28.446Z,55.20
2022-09-15T10:37:06.275Z,54.38
2022-09-15T10:39:53.371Z,49.28
2022-09-15T10:42:33.468Z,73.03
2022-09-15T10:45:39.626Z,67.80
2022-09-15T10:48:39.982Z,70.40
2022-09-15T10:51:18.720Z,73.05
2022-09-15T10:54:00.261Z,69.82
2022-09-15T10:56:34.540Z,67.68
2022-09-15T10:59:16.099Z,64.47
2022-09-15T11:02:01.742Z,65.55
2022-09-15T11:04:57.962Z,56.63
2022-09-15T11:07:37.912Z,77.28
2022-09-15T11:10:34.035Z,65.22
2022-09-15T11:13:09.347Z,63.95
2022-09-15T11:16:24.180Z,65.35
2022-09-15T11:19:10.049Z,52.20
2022-09-15T11:21:44.813Z,51.47
2022-09-15T11:24:22.507Z,59.92
2022-09-15T11:27:01.504Z,45.03
2022-09-15T11:29:43.592Z,36.85
2022-09-15T11:34:49.811Z,50.43
2022-09-15T11:37:25.609Z,54.85
2022-09-15T11:40:06.642Z,52.80
2022-09-15T11:42:44.978Z,39.85
2022-09-15T11:45:24.523Z,39.60
2022-09-15T11:47:59.438Z,45.42
2022-09-15T11:50:34.301Z,43.17
2022-09-15T11:53:09.700Z,45.75
2022-09-15T11:55:45.321Z,43.20
2022-09-15T11:58:31.111Z,39.17
2022-09-15T12:01:01.911Z,37.15
2022-09-15T12:03:42.429Z,32.25
2022-09-15T12:06:28.101Z,41.92
2022-09-15T12:09:06.389Z,36.65
2022-09-15T12:11:42.395Z,32.20
2022-09-15T12:14:35.048Z,36.45
2022-09-15T12:17:01.979Z,35.55
2022-09-15T12:19:55.778Z,45.03
2022-09-15T12:22:41.423Z,39.97
2022-09-15T12:25:14.112Z,37.97
2022-09-15T12:27:40.744Z,37.63
2022-09-15T12:30:41.219Z,51.78
2022-09-15T12:33:54.044Z,46.58
2022-09-15T12:36:34.359Z,49.05
2022-09-15T12:39:02.893Z,53.28
2022-09-15T12:41:30.636Z,44.90
2022-09-15T12:44:02.458Z,40.95
2022-09-15T12:46:29.136Z,46.53
2022-09-15T12:49:03.154Z,40.20
2022-09-15T12:51:31.014Z,33.53
2022-09-15T12:54:07.521Z,37.80
2022-09-15T12:56:35.561Z,39.85
2022-09-15T12:59:11.256Z,39.90
2022-09-15T13:01:51.390Z,33.22
2022-09-15T13:04:43.136Z,33.03
2022-09-15T13:07:16.907Z,38.33
2022-09-15T13:09:58.435Z,40.13
2022-09-15T13:12:33.138Z,28.65
2022-09-15T13:15:03.988Z,34.25
2022-09-15T13:17:33.215Z,36.78
2022-09-15T13:20:09.225Z,31.55
2022-09-15T13:22:43.965Z,27.20
2022-09-15T13:25:14.650Z,28.48
2022-09-15T13:27:43.099Z,40.17
2022-09-15T13:30:18.889Z,26.55
2022-09-15T13:33:09.968Z,29.48
2022-09-15T13:35:43.039Z,36.92
2022-09-15T13:38:39.502Z,48.35
2022-09-15T13:41:24.780Z,42.03
2022-09-15T13:44:00.451Z,38.63
2022-09-15T13:46:48.268Z,49.55
2022-09-15T13:49:33.198Z,53.63
2022-09-15T13:52:22.528Z,41.50
2022-09-15T13:55:24.320Z,44.35
2022-09-15T14:01:07.544Z,42.60
2022-09-15T14:03:41.713Z,42.33
2022-09-15T14:06:30.402Z,38.30
2022-09-15T14:09:04.307Z,44.85
2022-09-15T14:11:33.613Z,34.00
2022-09-15T14:14:03.356Z,38.47
2022-09-15T14:16:36.792Z,40.00
2022-09-15T14:19:27.832Z,30.50
2022-09-15T14:21:58.298Z,38.92
2022-09-15T14:24:30.979Z,34.78
2022-09-15T14:27:01.007Z,44.78
2022-09-15T14:29:27.946Z,34.60
2022-09-15T14:32:01.991Z,36.67
2022-09-15T14:34:33.373Z,38.90
2022-09-15T14:37:12.016Z,36.33
2022-09-15T14:39:40.431Z,30.10
2022-09-15T14:42:23.015Z,41.17
2022-09-15T14:47:43.398Z,38.88
2022-09-15T14:50:21.487Z,50.92
2022-09-15T14:52:50.601Z,50.00
2022-09-15T14:55:23.793Z,40.35
2022-09-15T14:58:01.329Z,51.15
2022-09-15T15:00:33.054Z,43.33
2022-09-15T15:03:14.744Z,33.83
2022-09-15T15:06:02.798Z,36.08
2022-09-15T15:08:32.971Z,39.55
2022-09-15T15:11:01.610Z,35.53
2022-09-15T15:13:30.074Z,34.67
2022-09-15T15:15:56.878Z,43.00
2022-09-15T15:18:35.561Z,41.78
2022-09-15T15:21:02.214Z,36.88
2022-09-15T15:23:28.851Z,41.58
2022-09-15T15:26:26.739Z,43.35
2022-09-15T15:28:53.276Z,31.13
2022-09-15T15:31:23.690Z,32.63
2022-09-15T15:34:05.710Z,36.60
2022-09-15T15:36:35.202Z,39.92
2022-09-15T15:39:24.796Z,31.90
2022-09-15T15:42:01.332Z,38.45
2022-09-15T15:44:31.559Z,28.20
2022-09-15T15:47:13.507Z,25.73
2022-09-15T15:50:02.313Z,34.50
2022-09-15T15:52:27.711Z,36.53
2022-09-15T15:54:54.206Z,30.92
2022-09-15T15:57:27.640Z,40.40
2022-09-15T15:59:56.988Z,34.05
2022-09-15T16:02:25.522Z,28.98
2022-09-15T16:04:52.335Z,27.70
2022-09-15T16:07:23.354Z,31.23
2022-09-15T16:09:52.099Z,27.40
2022-09-15T16:12:19.225Z,26.85
2022-09-15T16:14:47.596Z,28.48
2022-09-15T16:17:15.041Z,24.00
2022-09-15T16:19:41.841Z,30.35
2022-09-15T16:22:16.321Z,29.83
2022-09-15T16:24:43.053Z,26.70
2022-09-15T16:27:16.339Z,24.17
2022-09-15T16:29:43.951Z,22.25
2022-09-15T16:32:22.111Z,26.40
2022-09-15T16:34:53.944Z,26.98
2022-09-15T16:37:23.140Z,19.20
2022-09-15T16:39:52.120Z,20.73
2022-09-15T16:42:19.060Z,23.58
2022-09-15T16:44:46.398Z,20.23
2022-09-15T16:47:13.196Z,23.83
2022-09-15T16:49:39.784Z,23.80
2022-09-15T16:52:07.354Z,26.90
2022-09-15T16:54:33.964Z,21.25
2022-09-15T16:57:00.672Z,19.70
2022-09-15T16:59:27.245Z,26.90
2022-09-15T17:01:53.980Z,21.77
2022-09-15T17:04:20.999Z,20.77
2022-09-15T17:06:47.653Z,25.45
2022-09-15T17:09:14.386Z,18.10
2022-09-15T17:11:41.238Z,18.90
2022-09-15T17:14:14.253Z,17.83
2022-09-15T17:16:41.993Z,19.77
2022-09-15T17:19:08.669Z,26.10
2022-09-15T17:21:35.342Z,25.70
2022-09-15T17:24:03.497Z,18.77
2022-09-15T17:26:31.566Z,21.95
2022-09-15T17:28:58.993Z,20.52
2022-09-15T17:31:26.080Z,22.95
2022-09-15T17:33:52.796Z,18.77
2022-09-15T17:36:19.904Z,29.05
2022-09-15T17:38:49.339Z,22.55
2022-09-15T17:41:18.736Z,24.30
2022-09-15T17:43:45.936Z,20.42
2022-09-15T17:46:13.033Z,21.13
2022-09-15T17:48:40.142Z,25.52
2022-09-15T17:51:08.047Z,18.80
2022-09-15T17:53:35.007Z,19.90
2022-09-15T17:56:01.772Z,18.58
2022-09-15T17:58:31.609Z,25.13
2022-09-15T18:00:59.163Z,21.10
2022-09-15T18:03:30.027Z,23.42
2022-09-15T18:05:58.549Z,20.88
2022-09-15T18:08:26.467Z,22.52
2022-09-15T18:10:53.604Z,18.00
2022-09-15T18:13:23.522Z,20.60
2022-09-15T18:15:50.702Z,28.83
2022-09-15T18:18:20.077Z,17.25
2022-09-15T18:20:47.720Z,22.05
2022-09-15T18:23:16.884Z,13.95
2022-09-15T18:25:44.651Z,15.05
2022-09-15T18:28:12.439Z,16.88
2022-09-15T18:30:42.278Z,19.00
2022-09-15T18:33:20.845Z,15.65
2022-09-15T18:35:50.374Z,17.13
2022-09-15T18:38:18.089Z,17.40
2022-09-15T18:40:56.004Z,17.73
2022-09-15T18:43:27.400Z,18.25
2022-09-15T18:46:02.123Z,14.40
2022-09-15T18:48:29.492Z,17.73
2022-09-15T18:50:57.677Z,14.20
2022-09-15T18:53:24.642Z,17.75
2022-09-15T18:55:51.555Z,13.30
2022-09-15T18:58:19.675Z,13.20
2022-09-15T19:00:46.803Z,14.20
2022-09-15T19:03:14.328Z,16.35
2022-09-15T19:05:41.743Z,15.52
2022-09-15T19:08:09.414Z,14.02
2022-09-15T19:10:36.085Z,15.63
2022-09-15T19:13:02.812Z,15.10
2022-09-15T19:15:31.364Z,15.55
2022-09-15T19:17:58.044Z,13.25
2022-09-15T19:20:25.419Z,14.30
2022-09-15T19:22:52.246Z,12.52
2022-09-15T19:25:20.436Z,9.15
2022-09-15T19:27:48.033Z,15.82
2022-09-15T19:30:15.236Z,11.88
2022-09-15T19:32:46.325Z,15.30
2022-09-15T19:35:13.902Z,14.07
2022-09-15T19:37:41.778Z,11.27
2022-09-15T19:40:12.265Z,11.52
2022-09-15T19:42:41.871Z,14.02
2022-09-15T19:45:10.985Z,8.45
2022-09-15T19:47:38.996Z,11.15
2022-09-15T19:50:08.098Z,9.80
2022-09-15T19:52:34.739Z,10.70
2022-09-15T19:55:01.685Z,8.75
2022-09-15T19:57:28.731Z,10.45
2022-09-15T19:59:55.321Z,7.10
2022-09-15T20:02:23.252Z,7.32
2022-09-15T20:07:34.684Z,10.73
2022-09-15T20:10:02.189Z,7.75
2022-09-15T20:12:28.838Z,12.38
2022-09-15T20:14:55.655Z,8.98
2022-09-15T20:17:22.558Z,10.75
2022-09-15T20:19:49.290Z,7.93
2022-09-15T20:22:16.530Z,7.25
2022-09-15T20:24:46.178Z,8.27
2022-09-15T20:27:14.131Z,9.32
2022-09-15T20:29:42.113Z,8.90
2022-09-15T20:32:08.797Z,10.40
2022-09-15T20:34:38.061Z,6.43
2022-09-15T20:37:05.687Z,6.72
2022-09-15T20:39:33.347Z,6.28
2022-09-15T20:41:59.918Z,9.50
2022-09-15T20:44:26.619Z,7.60
2022-09-15T20:46:53.676Z,9.27
2022-09-15T20:49:20.492Z,9.15
2022-09-15T20:51:47.143Z,11.82
2022-09-15T20:54:15.049Z,9.88
2022-09-15T20:56:42.972Z,6.07
2022-09-15T20:59:15.761Z,8.00
2022-09-15T21:01:44.036Z,8.20
2022-09-15T21:04:12.111Z,9.85
2022-09-15T21:06:39.281Z,8.18
2022-09-15T21:09:06.367Z,10.55
2022-09-15T21:11:33.885Z,10.15
2022-09-15T21:14:01.548Z,8.98
2022-09-15T21:16:29.105Z,7.57
2022-09-15T21:18:57.575Z,10.48
2022-09-15T21:21:26.512Z,4.85
2022-09-15T21:24:03.501Z,11.57
2022-09-15T21:26:32.646Z,10.20
2022-09-15T21:28:59.298Z,8.77
2022-09-15T21:31:28.552Z,7.90
2022-09-15T21:33:56.330Z,7.28
2022-09-15T21:36:25.962Z,9.38
2022-09-15T21:38:56.192Z,9.45
2022-09-15T21:41:25.531Z,7.38
2022-09-15T21:43:54.924Z,9.57
2022-09-15T21:46:24.192Z,10.70
2022-09-15T21:48:51.187Z,12.73
2022-09-15T21:51:24.294Z,6.40
2022-09-15T21:53:53.043Z,9.30
2022-09-15T21:56:20.672Z,8.35
2022-09-15T21:58:47.310Z,8.93
2022-09-15T22:01:19.267Z,13.43
2022-09-15T22:09:10.486Z,5.35
2022-09-15T22:11:38.402Z,6.53
2022-09-15T22:14:10.423Z,4.18
2022-09-15T22:19:07.663Z,6.65
2022-09-15T22:21:37.184Z,8.35
2022-09-15T22:24:05.806Z,4.25
2022-09-15T22:26:34.359Z,5.20
2022-09-15T22:29:01.750Z,6.45
2022-09-15T22:31:29.320Z,7.13
2022-09-15T22:33:56.659Z,4.90
2022-09-15T22:36:29.719Z,5.75
2022-09-15T22:39:04.391Z,6.28
2022-09-15T22:41:35.242Z,7.65
2022-09-15T22:44:04.434Z,5.53
2022-09-15T22:46:31.395Z,6.32
2022-09-15T22:48:58.678Z,6.93
2022-09-15T22:51:25.354Z,4.88
2022-09-15T22:53:57.184Z,6.63
2022-09-15T22:58:52.460Z,6.07
2022-09-15T23:01:21.566Z,5.38
2022-09-15T23:03:53.528Z,6.57
2022-09-15T23:06:21.331Z,7.63
2022-09-15T23:08:52.858Z,7.03
2022-09-15T23:11:20.401Z,8.10
2022-09-15T23:13:48.791Z,8.25
2022-09-15T23:16:15.853Z,8.45
2022-09-15T23:18:43.480Z,7.50
2022-09-15T23:21:12.198Z,6.20
2022-09-15T23:23:41.153Z,7.13
2022-09-15T23:26:10.474Z,7.28
2022-09-15T23:28:41.516Z,5.75
2022-09-15T23:31:10.303Z,4.50
2022-09-15T23:33:37.082Z,6.82
2022-09-15T23:36:05.545Z,6.28
2022-09-15T23:38:38.923Z,6.22
2022-09-15T23:41:06.803Z,6.35
2022-09-15T23:43:34.009Z,7.78
2022-09-15T23:46:01.064Z,7.00
2022-09-15T23:48:27.722Z,5.88
2022-09-15T23:50:54.606Z,4.60
2022-09-15T23:53:21.723Z,8.25
2022-09-15T23:55:48.572Z,6.80
2022-09-15T23:58:16.070Z,4.88
